CheckWX is a tool to help pilots better visualize weather data.  It is not intended as a substitute for an official pre-flight weather briefing.

02:37:55 UTC

GMTN METAR
Saniat Rmel Airport
Morocco
Current

38 mins ago

GMTN 180200Z AUTO 09007KT /// 14/11 Q1019
Observed
Feb-18 @ 02:00 UTC
Wind
  • 090° at 7 KTS
Visibility
Temperature
14°C / 57°F
Dewpoint
11°C / 52°F
Humidity
82%
Altimeter
30.09" Hg
Pressure
1018.92 hPa
Previous

2 hours ago

GMTN 180100Z AUTO 10008KT /// 14/11 Q1019
Observed
Feb-18 @ 01:00 UTC
Wind
  • 100° at 8 KTS
Visibility
Temperature
14°C / 57°F
Dewpoint
11°C / 52°F
Humidity
82%
Altimeter
30.09" Hg
Pressure
1018.92 hPa
Previous

3 hours ago

GMTN 180000Z AUTO 10007KT 060V120 /// 14/11 Q1019
Observed
Feb-18 @ 00:00 UTC
Wind
  • 100° at 7 KTS
Visibility
Temperature
14°C / 57°F
Dewpoint
11°C / 52°F
Humidity
82%
Altimeter
30.09" Hg
Pressure
1018.92 hPa